createdAt,value
2022-08-03T00:00:24.344Z,101210.75
2022-08-03T00:02:51.091Z,101207.44
2022-08-03T00:05:17.555Z,101206.44
2022-08-03T00:07:44.042Z,101197.78
2022-08-03T00:10:11.167Z,101204.41
2022-08-03T00:12:37.670Z,101199.94
2022-08-03T00:15:04.591Z,101197.78
2022-08-03T00:17:52.756Z,101197.28
2022-08-03T00:20:21.298Z,101185.13
2022-08-03T00:22:47.889Z,101186.94
2022-08-03T00:25:14.404Z,101194.47
2022-08-03T00:27:40.881Z,101176.00
2022-08-03T00:30:07.623Z,101196.19
2022-08-03T00:32:34.091Z,101168.50
2022-08-03T00:35:00.599Z,101186.53
2022-08-03T00:37:40.830Z,101165.63
2022-08-03T00:40:10.533Z,101171.22
2022-08-03T00:42:46.929Z,101180.31
2022-08-03T00:45:13.438Z,101164.00
2022-08-03T00:47:39.897Z,101165.91
2022-08-03T00:50:06.723Z,101173.34
2022-08-03T00:52:34.005Z,101171.25
2022-08-03T00:55:01.456Z,101166.91
2022-08-03T00:57:30.450Z,101156.50
2022-08-03T00:59:57.130Z,101167.34
2022-08-03T01:02:23.674Z,101170.28
2022-08-03T01:04:50.251Z,101169.16
2022-08-03T01:07:51.113Z,101164.09
2022-08-03T01:10:26.955Z,101143.28
2022-08-03T01:13:59.961Z,101141.47
2022-08-03T01:16:07.975Z,101162.63
2022-08-03T01:18:51.051Z,101151.31
2022-08-03T01:21:27.504Z,101151.56
2022-08-03T01:24:44.505Z,101159.13
2022-08-03T01:27:17.855Z,101149.47
2022-08-03T01:29:58.546Z,101152.69
2022-08-03T01:32:59.697Z,101144.59
2022-08-03T01:35:27.691Z,101163.03
2022-08-03T01:38:04.507Z,101133.91
2022-08-03T01:40:34.577Z,101146.56
2022-08-03T01:43:06.679Z,101129.91
2022-08-03T01:45:34.647Z,101123.47
2022-08-03T01:48:02.639Z,101133.47
2022-08-03T01:50:30.863Z,101150.13
2022-08-03T01:52:58.502Z,101141.09
2022-08-03T01:55:28.286Z,101140.53
2022-08-03T01:58:04.885Z,101143.75
2022-08-03T02:00:35.437Z,101126.34
2022-08-03T02:03:05.226Z,101141.22
2022-08-03T02:05:32.400Z,101129.63
2022-08-03T02:08:00.200Z,101134.72
2022-08-03T02:10:34.777Z,101133.84
2022-08-03T02:13:05.133Z,101150.25
2022-08-03T02:15:34.060Z,101125.72
2022-08-03T02:18:02.430Z,101116.06
2022-08-03T02:20:33.168Z,101142.84
2022-08-03T02:23:00.273Z,101135.53
2022-08-03T02:25:28.242Z,101146.97
2022-08-03T02:28:19.272Z,101139.03
2022-08-03T02:30:51.740Z,101126.44
2022-08-03T02:33:27.010Z,101103.19
2022-08-03T02:35:55.142Z,101117.47
2022-08-03T02:38:26.194Z,101148.50
2022-08-03T02:40:56.299Z,101099.00
2022-08-03T02:43:24.627Z,101126.91
2022-08-03T02:45:53.588Z,101137.06
2022-08-03T02:48:29.296Z,101136.84
2022-08-03T02:51:02.311Z,101134.22
2022-08-03T02:53:30.711Z,101135.88
2022-08-03T02:55:59.257Z,101146.06
2022-08-03T02:58:26.281Z,101149.38
2022-08-03T03:01:06.569Z,101132.41
2022-08-03T03:03:39.961Z,101142.34
2022-08-03T03:06:13.476Z,101130.81
2022-08-03T03:08:42.280Z,101146.50
2022-08-03T03:11:10.300Z,101129.00
2022-08-03T03:13:37.975Z,101150.00
2022-08-03T03:16:08.615Z,101134.41
2022-08-03T03:18:37.390Z,101139.44
2022-08-03T03:21:04.936Z,101156.31
2022-08-03T03:23:35.208Z,101097.88
2022-08-03T03:26:02.401Z,101134.00
2022-08-03T03:28:30.553Z,101130.66
2022-08-03T03:30:57.162Z,101155.19
2022-08-03T03:33:24.214Z,101098.19
2022-08-03T03:35:51.920Z,101122.88
2022-08-03T03:38:19.858Z,101135.53
2022-08-03T03:40:46.491Z,101126.50
2022-08-03T03:43:13.492Z,101151.69
2022-08-03T03:45:43.496Z,101146.72
2022-08-03T03:48:10.748Z,101149.47
2022-08-03T03:50:40.822Z,101153.44
2022-08-03T03:53:10.604Z,101131.38
2022-08-03T03:55:59.490Z,101134.09
2022-08-03T03:58:25.016Z,101147.63
2022-08-03T04:00:51.717Z,101113.78
2022-08-03T04:03:18.227Z,101110.75
2022-08-03T04:06:03.332Z,101130.53
2022-08-03T04:08:49.454Z,101127.09
2022-08-03T04:11:58.565Z,101152.47
2022-08-03T04:14:35.127Z,101146.22
2022-08-03T04:17:03.573Z,101141.63
2022-08-03T04:19:32.960Z,101134.97
2022-08-03T04:22:03.732Z,101131.47
2022-08-03T04:24:38.355Z,101132.50
2022-08-03T04:27:08.926Z,101145.41
2022-08-03T04:29:48.042Z,101142.63
2022-08-03T04:32:17.184Z,101156.31
2022-08-03T04:34:44.459Z,101147.03
2022-08-03T04:37:35.275Z,101157.75
2022-08-03T04:40:05.928Z,101141.88
2022-08-03T04:42:33.882Z,101131.59
2022-08-03T04:45:02.819Z,101151.31
2022-08-03T04:47:32.970Z,101161.50
2022-08-03T04:50:12.963Z,101162.16
2022-08-03T04:52:44.029Z,101147.16
2022-08-03T04:55:11.055Z,101142.78
2022-08-03T04:57:41.381Z,101152.06
2022-08-03T05:00:17.976Z,101103.69
2022-08-03T05:02:47.291Z,101135.97
2022-08-03T05:05:16.270Z,101115.50
2022-08-03T05:08:05.128Z,101108.81
2022-08-03T05:10:48.354Z,101110.28
2022-08-03T05:13:17.181Z,101159.69
2022-08-03T05:15:47.806Z,101114.59
2022-08-03T05:18:22.002Z,101120.41
2022-08-03T05:44:44.322Z,101143.13
2022-08-03T05:47:21.262Z,101130.09
2022-08-03T05:50:00.864Z,101157.19
2022-08-03T06:15:51.131Z,101177.91
2022-08-03T06:18:18.014Z,101160.75
2022-08-03T07:17:00.310Z,101147.66
2022-08-03T07:19:26.768Z,101163.97
2022-08-03T07:21:53.651Z,101139.84
2022-08-03T07:24:20.259Z,101152.78
2022-08-03T07:26:46.609Z,101168.50
2022-08-03T07:29:15.509Z,101158.38
2022-08-03T07:31:42.511Z,101142.91
2022-08-03T07:34:09.134Z,101150.38
2022-08-03T07:36:35.583Z,101165.09
2022-08-03T07:39:17.692Z,101162.69
2022-08-03T07:41:51.949Z,101128.66
2022-08-03T07:48:12.394Z,101147.91
2022-08-03T07:51:07.295Z,101153.22
2022-08-03T07:56:47.696Z,101147.19
2022-08-03T08:00:24.635Z,101120.63
2022-08-03T08:07:18.344Z,101105.63
2022-08-03T08:10:33.103Z,101133.75
2022-08-03T08:16:20.892Z,101110.47
2022-08-03T08:18:47.763Z,101131.56
2022-08-03T08:22:14.388Z,101145.50
2022-08-03T08:25:21.541Z,101149.97
2022-08-03T08:28:29.831Z,101119.56
2022-08-03T08:30:59.278Z,101126.84
2022-08-03T08:33:25.923Z,101152.72
2022-08-03T08:35:54.250Z,101158.59
2022-08-03T08:38:21.989Z,101139.63
2022-08-03T08:40:50.155Z,101162.06
2022-08-03T08:43:16.699Z,101136.81
2022-08-03T08:45:44.962Z,101144.38
2022-08-03T08:48:14.233Z,101154.09
2022-08-03T08:50:41.124Z,101144.75
2022-08-03T08:53:17.392Z,101137.06
2022-08-03T08:55:58.715Z,101148.81
2022-08-03T08:58:30.026Z,101158.31
2022-08-03T09:01:00.026Z,101149.88
2022-08-03T09:03:32.726Z,101148.72
2022-08-03T09:06:01.038Z,101117.19
2022-08-03T09:08:37.038Z,101116.28
2022-08-03T09:11:03.672Z,101126.50
2022-08-03T09:25:23.456Z,101143.81
2022-08-03T09:27:53.537Z,101097.06
2022-08-03T09:30:34.573Z,101130.91
2022-08-03T09:33:17.338Z,101147.75
2022-08-03T09:36:18.954Z,101110.03
2022-08-03T09:39:02.043Z,101125.16
2022-08-03T09:41:28.760Z,101137.56
2022-08-03T09:43:57.212Z,101114.59
2022-08-03T09:46:24.027Z,101105.97
2022-08-03T09:48:50.579Z,101121.78
2022-08-03T09:51:33.059Z,101124.03
2022-08-03T09:54:15.088Z,101124.03
2022-08-03T09:56:46.893Z,101104.16
2022-08-03T09:59:33.484Z,101119.28
2022-08-03T10:02:00.909Z,101128.34
2022-08-03T10:04:30.511Z,101085.34
2022-08-03T10:07:07.520Z,101114.34
2022-08-03T10:09:34.043Z,101121.72
2022-08-03T10:12:12.596Z,101095.56
2022-08-03T10:14:41.998Z,101111.06
2022-08-03T10:17:09.621Z,101094.63
2022-08-03T10:31:57.697Z,101062.47
2022-08-03T10:35:20.245Z,101094.25
2022-08-03T10:42:27.718Z,101041.16
2022-08-03T11:25:54.679Z,101021.16
2022-08-03T11:28:28.796Z,101042.72
2022-08-03T11:30:55.382Z,101054.47
2022-08-03T11:33:32.117Z,101056.09
2022-08-03T11:36:03.220Z,101020.88
2022-08-03T11:38:29.874Z,101032.75
2022-08-03T11:40:56.391Z,101057.91
2022-08-03T11:43:42.923Z,101049.19
2022-08-03T12:01:42.644Z,101016.56
2022-08-03T12:05:09.390Z,101024.97
2022-08-03T12:14:50.624Z,101005.38
2022-08-03T12:17:46.117Z,101024.44
2022-08-03T12:20:34.783Z,101023.00
2022-08-03T12:31:03.517Z,101013.59
2022-08-03T12:48:31.775Z,101029.72
2022-08-03T12:51:39.641Z,101033.38
2022-08-03T12:54:06.427Z,100995.09
2022-08-03T12:56:33.620Z,101025.63
2022-08-03T12:59:00.491Z,101027.34
2022-08-03T13:01:28.979Z,100973.66
2022-08-03T13:04:00.310Z,100986.28
2022-08-03T13:06:30.866Z,101017.00
2022-08-03T13:09:17.374Z,100989.41
2022-08-03T13:11:57.449Z,101007.78
2022-08-03T13:14:29.057Z,101015.94
2022-08-03T13:16:55.825Z,101002.50
2022-08-03T13:19:24.523Z,101005.03
2022-08-03T13:22:01.385Z,100999.50
2022-08-03T13:24:31.909Z,101008.78
2022-08-03T13:26:59.520Z,101006.69
2022-08-03T13:29:26.028Z,101003.22
2022-08-03T13:31:52.666Z,101004.97
2022-08-03T13:34:23.065Z,101009.28
2022-08-03T13:37:08.417Z,101012.47
2022-08-03T13:39:58.300Z,100985.66
2022-08-03T13:42:22.202Z,100993.66
2022-08-03T13:44:48.713Z,100985.34
2022-08-03T13:47:15.204Z,100983.13
2022-08-03T13:49:42.261Z,100973.44
2022-08-03T13:52:26.065Z,100980.56
2022-08-03T13:54:52.535Z,100993.25
2022-08-03T13:58:04.847Z,100987.16
2022-08-03T14:00:06.847Z,100970.88
2022-08-03T14:02:33.348Z,100962.41
2022-08-03T14:04:59.816Z,100963.97
2022-08-03T14:07:26.295Z,100963.91
2022-08-03T14:09:55.222Z,100967.06
2022-08-03T14:12:21.682Z,100971.75
2022-08-03T14:14:48.158Z,100956.75
2022-08-03T14:17:16.332Z,100974.66
2022-08-03T14:19:53.015Z,100957.28
2022-08-03T14:22:21.157Z,100955.47
2022-08-03T14:24:49.248Z,100969.75
2022-08-03T14:27:16.590Z,100942.81
2022-08-03T14:29:44.594Z,100963.69
2022-08-03T14:32:13.434Z,100942.75
2022-08-03T14:34:40.956Z,100963.50
2022-08-03T14:37:08.129Z,100968.91
2022-08-03T14:42:21.639Z,100944.00
2022-08-03T14:44:48.126Z,100945.53
2022-08-03T14:47:14.817Z,100947.38
2022-08-03T14:50:34.780Z,100940.31
2022-08-03T14:52:28.798Z,100947.19
2022-08-03T14:54:55.406Z,100921.63
2022-08-03T14:57:22.154Z,100930.72
2022-08-03T14:59:56.063Z,100923.56
2022-08-03T15:02:24.813Z,100914.81
2022-08-03T15:04:52.304Z,100926.72
2022-08-03T15:07:20.480Z,100930.56
2022-08-03T15:09:47.243Z,100932.66
2022-08-03T15:12:13.701Z,100926.56
2022-08-03T15:14:40.386Z,100921.63
2022-08-03T15:17:07.552Z,100930.66
2022-08-03T15:20:00.343Z,100922.31
2022-08-03T15:22:25.373Z,100913.84
2022-08-03T15:26:04.032Z,100914.53
2022-08-03T15:28:03.578Z,100918.09
2022-08-03T15:30:33.859Z,100927.75
2022-08-03T15:33:00.346Z,100912.50
2022-08-03T15:35:28.890Z,100920.41
2022-08-03T15:37:55.561Z,100900.97
2022-08-03T15:40:22.413Z,100885.84
2022-08-03T15:42:49.038Z,100900.69
2022-08-03T15:45:17.836Z,100884.91
2022-08-03T15:47:47.251Z,100886.75
2022-08-03T15:50:13.770Z,100915.38
2022-08-03T15:52:40.262Z,100909.38
2022-08-03T15:55:07.343Z,100899.47
2022-08-03T15:57:33.981Z,100919.13
2022-08-03T16:00:20.589Z,100905.50
2022-08-03T16:03:00.128Z,100912.38
2022-08-03T16:05:26.628Z,100891.31
2022-08-03T16:08:02.944Z,100917.69
2022-08-03T16:10:30.754Z,100908.75
2022-08-03T16:12:58.851Z,100897.47
2022-08-03T16:15:25.374Z,100896.97
2022-08-03T16:17:51.900Z,100898.44
2022-08-03T16:20:31.450Z,100898.13
2022-08-03T16:23:06.978Z,100892.25
2022-08-03T16:25:41.693Z,100902.81
2022-08-03T16:28:13.824Z,100882.88
2022-08-03T16:30:42.641Z,100895.44
2022-08-03T16:33:10.555Z,100899.81
2022-08-03T16:35:37.105Z,100885.84
2022-08-03T16:38:09.622Z,100900.06
2022-08-03T16:40:40.025Z,100886.41
2022-08-03T16:43:17.913Z,100895.09
2022-08-03T16:45:48.773Z,100880.59
2022-08-03T16:48:16.182Z,100899.84
2022-08-03T16:50:43.046Z,100902.69
2022-08-03T16:53:15.711Z,100901.59
2022-08-03T16:55:51.802Z,100895.47
2022-08-03T16:58:34.522Z,100894.25
2022-08-03T17:01:22.413Z,100891.88
2022-08-03T17:04:01.343Z,100899.66
2022-08-03T17:06:35.294Z,100890.78
2022-08-03T17:09:08.939Z,100900.72
2022-08-03T17:11:47.512Z,100899.59
2022-08-03T17:14:21.632Z,100900.47
2022-08-03T17:16:54.153Z,100901.94
2022-08-03T17:19:25.565Z,100911.19
2022-08-03T17:22:01.576Z,100907.22
2022-08-03T17:24:40.925Z,100874.00
2022-08-03T17:27:23.179Z,100900.41
2022-08-03T17:30:12.009Z,100910.94
2022-08-03T17:32:56.562Z,100901.53
2022-08-03T17:35:35.562Z,100889.13
2022-08-03T17:38:06.618Z,100918.53
2022-08-03T17:40:37.975Z,100896.00
2022-08-03T17:44:13.847Z,100901.22
2022-08-03T17:45:59.149Z,100879.06
2022-08-03T17:48:27.530Z,100893.84
2022-08-03T17:51:03.400Z,100894.53
2022-08-03T17:53:37.580Z,100908.25
2022-08-03T17:56:46.022Z,100928.16
2022-08-03T17:59:51.725Z,100923.44
2022-08-03T18:03:10.119Z,100928.66
2022-08-03T18:06:11.276Z,100877.19
2022-08-03T18:08:38.851Z,100923.97
2022-08-03T18:11:14.476Z,100908.31
2022-08-03T18:14:03.065Z,100915.97
2022-08-03T18:16:44.998Z,100892.63
2022-08-03T18:19:14.443Z,100902.78
2022-08-03T18:22:03.211Z,100903.63
2022-08-03T18:24:32.456Z,100918.84
2022-08-03T18:27:02.278Z,100906.00
2022-08-03T18:29:30.947Z,100928.00
2022-08-03T18:32:03.844Z,100918.28
2022-08-03T18:34:34.714Z,100914.06
2022-08-03T18:37:10.749Z,100907.78
2022-08-03T18:39:50.337Z,100903.56
2022-08-03T18:42:25.873Z,100909.72
2022-08-03T18:45:00.303Z,100946.69
2022-08-03T18:48:00.607Z,100920.50
2022-08-03T18:51:03.965Z,100894.91
2022-08-03T18:54:44.617Z,100929.31
2022-08-03T18:57:30.220Z,100918.13
2022-08-03T19:00:54.329Z,100950.44
2022-08-03T19:03:42.951Z,100917.66
2022-08-03T19:06:24.399Z,100954.19
2022-08-03T19:09:28.786Z,100930.06
2022-08-03T19:15:16.615Z,100936.47
2022-08-03T19:17:52.872Z,100959.59
2022-08-03T19:20:38.824Z,100929.53
2022-08-03T19:23:11.835Z,100957.41
2022-08-03T19:25:41.461Z,100911.72
2022-08-03T19:28:12.105Z,100954.34
2022-08-03T19:30:40.475Z,100924.59
2022-08-03T19:33:12.766Z,100932.38
2022-08-03T19:35:54.784Z,100939.53
2022-08-03T19:38:28.428Z,100963.75
2022-08-03T19:41:03.239Z,100928.03
2022-08-03T19:44:20.070Z,100972.06
2022-08-03T19:46:53.656Z,100929.13
2022-08-03T19:50:04.607Z,100930.91
2022-08-03T19:52:24.584Z,100939.97
2022-08-03T19:55:05.902Z,100925.88
2022-08-03T19:57:34.126Z,100966.03
2022-08-03T20:00:05.397Z,100921.25
2022-08-03T20:02:37.997Z,100938.41
2022-08-03T20:05:15.860Z,100962.97
2022-08-03T20:07:48.273Z,100939.44
2022-08-03T20:10:19.417Z,100959.09
2022-08-03T20:12:48.572Z,100965.03
2022-08-03T20:15:22.499Z,100939.50
2022-08-03T20:17:58.680Z,100921.06
2022-08-03T20:20:39.032Z,100946.97
2022-08-03T20:23:13.844Z,100946.69
2022-08-03T20:25:48.945Z,100914.47
2022-08-03T20:28:52.963Z,100953.59
2022-08-03T20:31:25.176Z,100956.34
2022-08-03T20:34:00.519Z,100928.25
2022-08-03T20:36:27.319Z,100962.28
2022-08-03T20:38:57.645Z,100919.38
2022-08-03T20:41:24.748Z,100943.91
2022-08-03T20:43:51.207Z,100949.38
2022-08-03T20:46:30.833Z,100936.16
2022-08-03T20:49:04.297Z,100934.00
2022-08-03T20:51:50.068Z,100933.00
2022-08-03T20:54:23.115Z,100958.28
2022-08-03T20:57:04.314Z,100939.66
2022-08-03T20:59:55.677Z,100907.19
2022-08-03T21:02:29.865Z,100904.03
2022-08-03T21:05:08.461Z,100951.25
2022-08-03T21:08:05.111Z,100955.59
2022-08-03T21:10:38.024Z,100951.19
2022-08-03T21:13:08.789Z,100925.34
2022-08-03T21:13:18.171Z,100959.88
2022-08-03T21:16:03.304Z,100952.97
2022-08-03T21:18:50.050Z,100936.97
2022-08-03T21:21:23.818Z,100957.69
2022-08-03T21:23:53.083Z,100967.13
2022-08-03T21:26:24.894Z,100957.53
2022-08-03T21:28:53.835Z,100947.72
2022-08-03T21:31:25.390Z,100959.63
2022-08-03T21:33:57.689Z,100935.66
2022-08-03T21:36:27.337Z,100943.09
2022-08-03T21:38:56.461Z,100949.00
2022-08-03T21:41:25.135Z,100964.94
2022-08-03T21:43:51.636Z,100936.84
2022-08-03T21:46:20.020Z,100941.34
2022-08-03T21:48:50.609Z,100938.63
2022-08-03T21:51:19.275Z,100939.72
2022-08-03T21:54:00.351Z,100942.03
2022-08-03T21:56:37.119Z,100942.50
2022-08-03T21:59:07.031Z,100951.63
2022-08-03T22:01:35.877Z,100962.66
2022-08-03T22:04:09.386Z,100953.91
2022-08-03T22:06:51.178Z,100967.09
2022-08-03T22:09:19.150Z,100940.00
2022-08-03T22:11:47.982Z,100959.03
2022-08-03T22:14:14.469Z,100942.53
2022-08-03T22:16:41.312Z,100969.19
2022-08-03T22:19:08.357Z,100953.78
2022-08-03T22:21:36.687Z,100964.19
2022-08-03T22:24:05.475Z,100945.53
2022-08-03T22:26:35.365Z,100965.56
2022-08-03T22:29:07.247Z,100945.63
2022-08-03T22:31:57.362Z,100964.72
2022-08-03T22:34:26.481Z,100969.97
2022-08-03T22:36:55.703Z,100965.28
2022-08-03T22:39:28.888Z,100968.69
2022-08-03T22:41:58.856Z,100975.59
2022-08-03T22:44:26.871Z,100977.97
2022-08-03T22:46:53.671Z,100969.97
2022-08-03T22:49:20.758Z,100981.44
2022-08-03T22:51:47.551Z,100984.50
2022-08-03T22:54:14.793Z,100964.00
2022-08-03T22:56:41.563Z,100946.63
2022-08-03T22:59:40.783Z,100985.13
2022-08-03T23:02:00.403Z,100976.56
2022-08-03T23:04:29.727Z,100967.75
2022-08-03T23:07:01.898Z,100969.66
2022-08-03T23:09:30.313Z,100969.56
2022-08-03T23:11:58.760Z,100979.13
2022-08-03T23:14:29.234Z,100945.34
2022-08-03T23:16:56.780Z,100957.00
2022-08-03T23:19:34.240Z,100967.03
2022-08-03T23:22:06.967Z,100960.47
2022-08-03T23:24:53.827Z,100971.75
2022-08-03T23:27:21.122Z,100968.78
2022-08-03T23:29:50.496Z,100970.38
2022-08-03T23:32:20.635Z,100974.19
2022-08-03T23:35:07.179Z,100972.31
2022-08-03T23:38:04.571Z,100963.72
2022-08-03T23:40:28.891Z,100969.44
2022-08-03T23:42:57.112Z,100972.13
2022-08-03T23:45:26.053Z,100971.56
2022-08-03T23:47:52.511Z,100974.63
2022-08-03T23:50:19.160Z,100968.75
2022-08-03T23:52:52.834Z,100975.72
2022-08-03T23:55:40.058Z,100940.41
2022-08-03T23:58:18.667Z,100979.41
